createdAt,value
2022-10-24T00:00:17.326Z,14.10
2022-10-24T00:06:20.817Z,14.10
2022-10-24T00:18:25.518Z,14.10
2022-10-24T00:24:28.136Z,14.00
2022-10-24T00:30:30.403Z,13.90
2022-10-24T00:36:33.060Z,13.90
2022-10-24T00:42:36.435Z,13.80
2022-10-24T00:48:43.911Z,13.80
2022-10-24T00:54:46.904Z,13.90
2022-10-24T01:00:49.735Z,13.90
2022-10-24T01:07:00.667Z,13.90
2022-10-24T01:13:37.968Z,13.90
2022-10-24T01:20:12.203Z,14.00
2022-10-24T01:26:36.104Z,14.00
2022-10-24T01:32:41.161Z,14.00
2022-10-24T01:38:54.159Z,13.90
2022-10-24T01:44:59.784Z,13.90
2022-10-24T01:51:03.625Z,13.90
2022-10-24T01:57:08.244Z,13.80
2022-10-24T02:03:22.712Z,13.90
2022-10-24T02:09:25.573Z,13.90
2022-10-24T02:15:30.358Z,13.90
2022-10-24T02:22:00.435Z,13.90
2022-10-24T02:28:20.896Z,13.90
2022-10-24T02:34:26.431Z,13.80
2022-10-24T02:40:32.064Z,13.80
2022-10-24T02:46:35.839Z,13.80
2022-10-24T02:52:39.880Z,13.70
2022-10-24T02:58:42.106Z,13.70
2022-10-24T03:04:44.380Z,13.70
2022-10-24T03:10:47.006Z,13.70
2022-10-24T03:16:49.326Z,13.80
2022-10-24T03:22:51.730Z,13.80
2022-10-24T03:28:53.996Z,13.80
2022-10-24T03:34:56.255Z,13.80
2022-10-24T03:40:59.073Z,13.90
2022-10-24T03:47:03.852Z,13.90
2022-10-24T03:53:06.234Z,13.80
2022-10-24T03:59:10.899Z,13.70
2022-10-24T04:05:14.323Z,13.70
2022-10-24T04:11:16.608Z,13.70
2022-10-24T04:17:19.013Z,13.60
2022-10-24T04:23:21.296Z,13.70
2022-10-24T04:29:23.530Z,13.70
2022-10-24T04:35:26.175Z,13.70
2022-10-24T04:41:28.373Z,13.70
2022-10-24T04:47:30.615Z,13.70
2022-10-24T04:53:32.971Z,13.70
2022-10-24T04:59:35.270Z,13.70
2022-10-24T05:05:37.538Z,13.80
2022-10-24T05:11:39.761Z,13.80
2022-10-24T05:17:42.448Z,13.80
2022-10-24T05:23:44.638Z,13.90
2022-10-24T05:29:46.870Z,14.00
2022-10-24T05:35:49.856Z,14.00
2022-10-24T05:41:54.618Z,14.10
2022-10-24T05:47:57.738Z,14.10
2022-10-24T05:54:02.810Z,14.20
2022-10-24T06:00:11.872Z,14.20
2022-10-24T06:06:14.060Z,14.20
2022-10-24T06:12:16.401Z,14.20
2022-10-24T06:18:19.398Z,14.30
2022-10-24T06:24:21.842Z,14.30
2022-10-24T06:30:24.171Z,14.30
2022-10-24T06:36:29.290Z,14.30
2022-10-24T06:42:33.943Z,14.40
2022-10-24T06:48:37.403Z,14.50
2022-10-24T06:54:41.188Z,14.60
2022-10-24T07:00:43.591Z,14.70
2022-10-24T07:06:46.200Z,14.80
2022-10-24T07:12:50.130Z,15.00
2022-10-24T07:18:52.667Z,15.00
2022-10-24T07:24:56.438Z,15.20
2022-10-24T07:30:59.125Z,15.30
2022-10-24T07:37:03.639Z,15.50
2022-10-24T07:43:05.823Z,15.70
2022-10-24T07:49:09.201Z,15.90
2022-10-24T07:55:11.490Z,15.90
2022-10-24T08:01:19.565Z,16.00
2022-10-24T08:07:21.807Z,16.00
2022-10-24T08:13:24.054Z,16.10
2022-10-24T08:25:33.140Z,16.30
2022-10-24T08:31:36.121Z,16.40
2022-10-24T08:37:38.706Z,16.50
2022-10-24T08:43:40.535Z,16.50
2022-10-24T08:49:47.893Z,16.60
2022-10-24T08:55:54.726Z,16.70
2022-10-24T09:02:04.117Z,16.70
2022-10-24T09:08:37.646Z,16.70
2022-10-24T09:14:43.050Z,16.80
2022-10-24T09:20:44.949Z,16.80
2022-10-24T09:26:47.385Z,16.90
2022-10-24T09:32:49.340Z,16.90
2022-10-24T09:38:51.622Z,17.00
2022-10-24T09:44:57.870Z,17.20
2022-10-24T09:51:00.446Z,17.40
2022-10-24T09:57:04.734Z,17.60
2022-10-24T10:03:23.730Z,17.70
2022-10-24T10:09:31.469Z,18.00
2022-10-24T10:15:47.313Z,18.40
2022-10-24T10:21:56.513Z,18.70
2022-10-24T10:28:02.290Z,18.90
2022-10-24T10:34:22.496Z,19.10
2022-10-24T10:40:33.623Z,19.60
2022-10-24T10:46:54.483Z,19.70
2022-10-24T10:53:15.880Z,19.60
2022-10-24T10:59:32.789Z,19.60
2022-10-24T11:06:07.495Z,19.60
2022-10-24T11:12:12.516Z,19.80
2022-10-24T11:18:22.609Z,20.30
2022-10-24T11:24:25.187Z,20.60
2022-10-24T11:30:49.802Z,20.30
2022-10-24T11:37:14.859Z,20.10
2022-10-24T11:43:23.429Z,20.10
2022-10-24T11:49:36.787Z,20.00
2022-10-24T11:55:42.352Z,19.90
2022-10-24T12:01:45.719Z,19.60
2022-10-24T12:07:50.628Z,19.40
2022-10-24T12:14:20.785Z,19.30
2022-10-24T12:20:25.519Z,19.40
2022-10-24T12:26:28.124Z,19.60
2022-10-24T12:32:36.995Z,20.00
2022-10-24T12:38:39.070Z,19.70
2022-10-24T12:44:42.320Z,19.50
2022-10-24T12:50:44.286Z,19.40
2022-10-24T12:56:52.562Z,19.40
2022-10-24T13:03:12.458Z,19.20
2022-10-24T13:09:24.717Z,19.40
2022-10-24T13:15:35.649Z,19.10
2022-10-24T13:21:48.510Z,18.80
2022-10-24T13:28:22.525Z,18.80
2022-10-24T13:34:28.892Z,19.00
2022-10-24T13:40:33.093Z,19.00
2022-10-24T13:46:54.299Z,18.90
2022-10-24T13:53:01.965Z,18.70
2022-10-24T13:59:03.835Z,18.80
2022-10-24T14:05:06.237Z,19.10
2022-10-24T14:11:13.109Z,19.20
2022-10-24T14:17:23.538Z,19.10
2022-10-24T14:23:40.567Z,18.90
2022-10-24T14:29:52.961Z,18.70
2022-10-24T14:35:57.996Z,18.50
2022-10-24T14:42:01.636Z,18.30
2022-10-24T14:48:19.724Z,18.20
2022-10-24T14:54:23.087Z,18.30
2022-10-24T15:00:27.711Z,18.30
2022-10-24T15:06:43.914Z,18.30
2022-10-24T15:13:03.065Z,18.40
2022-10-24T15:19:07.148Z,18.50
2022-10-24T15:31:27.605Z,18.50
2022-10-24T15:37:29.661Z,18.40
2022-10-24T15:43:31.471Z,18.00
2022-10-24T15:49:35.000Z,17.80
2022-10-24T15:55:36.906Z,17.60
2022-10-24T16:01:47.337Z,17.60
2022-10-24T16:07:52.120Z,17.30
2022-10-24T16:13:54.009Z,17.20
2022-10-24T16:19:55.867Z,17.10
2022-10-24T16:25:57.838Z,17.10
2022-10-24T16:31:59.680Z,17.10
2022-10-24T16:38:02.536Z,16.80
2022-10-24T16:44:04.486Z,16.60
2022-10-24T16:50:07.088Z,16.30
2022-10-24T16:56:11.250Z,16.10
2022-10-24T17:02:14.992Z,15.90
2022-10-24T17:08:16.968Z,15.70
2022-10-24T17:14:18.819Z,15.40
2022-10-24T17:20:20.940Z,15.10
2022-10-24T17:26:23.095Z,14.80
2022-10-24T17:32:25.190Z,14.60
2022-10-24T17:38:35.090Z,14.40
2022-10-24T17:44:37.860Z,14.30
2022-10-24T17:50:39.843Z,14.10
2022-10-24T17:56:42.487Z,14.00
2022-10-24T18:02:46.385Z,14.10
2022-10-24T18:08:48.808Z,14.20
2022-10-24T18:14:50.657Z,14.20
2022-10-24T18:20:52.599Z,14.20
2022-10-24T18:26:54.464Z,14.30
2022-10-24T18:32:56.333Z,14.30
2022-10-24T18:38:59.107Z,14.40
2022-10-24T18:45:01.763Z,14.30
2022-10-24T18:51:04.666Z,14.20
2022-10-24T18:57:28.083Z,14.00
2022-10-24T19:03:37.077Z,13.90
2022-10-24T19:09:40.210Z,14.10
2022-10-24T19:15:49.896Z,14.30
2022-10-24T19:21:52.339Z,14.60
2022-10-24T19:27:54.464Z,14.70
2022-10-24T19:33:56.426Z,14.80
2022-10-24T21:30:42.104Z,14.80
2022-10-24T21:36:44.180Z,15.00
2022-10-24T21:42:46.445Z,15.00
